createdAt,value
2022-10-18T00:01:48.608Z,64.90
2022-10-18T00:04:17.906Z,63.30
2022-10-18T00:06:45.955Z,55.67
2022-10-18T00:09:14.388Z,65.13
2022-10-18T00:11:43.817Z,61.50
2022-10-18T00:14:11.682Z,51.15
2022-10-18T00:16:39.429Z,53.75
2022-10-18T00:19:08.790Z,50.90
2022-10-18T00:21:39.885Z,50.40
2022-10-18T00:24:07.812Z,51.92
2022-10-18T00:26:36.182Z,54.05
2022-10-18T00:29:06.859Z,49.55
2022-10-18T00:31:36.878Z,51.45
2022-10-18T00:34:12.378Z,51.33
2022-10-18T00:36:40.638Z,50.47
2022-10-18T00:39:09.989Z,50.15
2022-10-18T00:41:38.626Z,51.53
2022-10-18T00:44:28.239Z,49.05
2022-10-18T00:47:02.469Z,49.03
2022-10-18T00:49:32.561Z,46.85
2022-10-18T00:52:05.332Z,47.90
2022-10-18T00:54:37.267Z,50.42
2022-10-18T00:57:06.259Z,50.03
2022-10-18T00:59:37.295Z,45.88
2022-10-18T01:04:35.989Z,47.10
2022-10-18T01:07:25.984Z,47.38
2022-10-18T01:09:56.492Z,46.25
2022-10-18T01:12:49.335Z,48.13
2022-10-18T01:15:39.385Z,45.22
2022-10-18T01:18:42.234Z,44.70
2022-10-18T01:21:47.643Z,45.65
2022-10-18T01:24:54.431Z,44.67
2022-10-18T01:28:05.855Z,43.45
2022-10-18T01:30:41.647Z,44.85
2022-10-18T01:33:15.304Z,44.25
2022-10-18T01:35:52.099Z,44.78
2022-10-18T01:38:23.523Z,43.65
2022-10-18T01:40:53.046Z,40.80
2022-10-18T01:43:48.159Z,42.45
2022-10-18T01:46:19.424Z,41.20
2022-10-18T01:51:40.051Z,42.05
2022-10-18T01:54:07.843Z,40.58
2022-10-18T01:56:52.300Z,40.78
2022-10-18T01:59:29.637Z,41.90
2022-10-18T02:02:11.346Z,39.22
2022-10-18T02:05:02.491Z,38.45
2022-10-18T02:07:36.809Z,37.50
2022-10-18T02:10:10.035Z,35.95
2022-10-18T02:12:42.615Z,37.00
2022-10-18T02:15:17.317Z,38.63
2022-10-18T02:17:46.874Z,37.40
2022-10-18T02:20:20.604Z,34.58
2022-10-18T02:22:55.720Z,36.45
2022-10-18T02:25:30.539Z,32.95
2022-10-18T02:27:59.041Z,30.33
2022-10-18T02:30:36.880Z,26.38
2022-10-18T02:33:17.570Z,25.63
2022-10-18T02:35:52.026Z,22.35
2022-10-18T02:38:24.550Z,21.77
2022-10-18T02:40:52.914Z,20.50
2022-10-18T02:43:24.640Z,21.83
2022-10-18T02:45:52.648Z,19.75
2022-10-18T02:48:20.383Z,19.65
2022-10-18T02:50:54.706Z,19.58
2022-10-18T02:53:22.600Z,19.38
2022-10-18T02:55:53.409Z,19.88
2022-10-18T02:58:21.300Z,18.55
2022-10-18T03:00:55.013Z,20.15
2022-10-18T03:03:22.840Z,19.27
2022-10-18T03:05:51.737Z,19.92
2022-10-18T03:08:20.221Z,20.55
2022-10-18T03:10:48.046Z,19.08
2022-10-18T03:13:16.560Z,20.23
2022-10-18T03:15:44.428Z,19.35
2022-10-18T03:18:12.667Z,19.38
2022-10-18T03:20:40.643Z,20.52
2022-10-18T03:23:08.613Z,21.35
2022-10-18T03:25:36.317Z,19.23
2022-10-18T03:28:29.395Z,20.88
2022-10-18T03:31:04.616Z,21.15
2022-10-18T03:33:33.037Z,18.95
2022-10-18T03:36:04.076Z,19.23
2022-10-18T03:41:02.500Z,18.98
2022-10-18T03:43:30.475Z,20.30
2022-10-18T03:46:01.715Z,18.75
2022-10-18T03:48:29.528Z,18.50
2022-10-18T03:50:57.285Z,19.73
2022-10-18T03:53:53.543Z,18.67
2022-10-18T03:56:21.362Z,18.90
2022-10-18T03:58:49.118Z,19.00
2022-10-18T04:01:19.345Z,19.80
2022-10-18T04:03:47.447Z,19.08
2022-10-18T04:06:15.407Z,19.63
2022-10-18T04:08:43.316Z,20.60
2022-10-18T04:11:12.289Z,21.17
2022-10-18T04:13:40.112Z,19.02
2022-10-18T04:16:10.110Z,18.80
2022-10-18T04:18:39.711Z,18.88
2022-10-18T04:21:07.503Z,18.17
2022-10-18T04:23:37.977Z,20.20
2022-10-18T04:26:10.676Z,19.48
2022-10-18T04:28:40.411Z,18.58
2022-10-18T04:31:10.708Z,19.05
2022-10-18T04:33:38.934Z,18.87
2022-10-18T04:36:07.123Z,18.23
2022-10-18T04:38:35.006Z,20.10
2022-10-18T04:41:03.007Z,18.73
2022-10-18T04:43:31.064Z,19.40
2022-10-18T04:45:58.897Z,20.83
2022-10-18T04:48:26.900Z,18.35
2022-10-18T04:50:54.810Z,22.10
2022-10-18T04:53:22.689Z,18.45
2022-10-18T04:55:50.963Z,19.80
2022-10-18T04:58:19.816Z,20.00
2022-10-18T05:00:49.210Z,19.70
2022-10-18T05:03:18.829Z,19.52
2022-10-18T05:06:01.204Z,19.25
2022-10-18T05:08:32.603Z,18.67
2022-10-18T05:11:01.069Z,18.95
2022-10-18T05:13:31.260Z,20.33
2022-10-18T05:16:00.435Z,19.87
2022-10-18T05:18:28.359Z,20.65
2022-10-18T05:20:56.308Z,20.13
2022-10-18T05:23:24.076Z,20.58
2022-10-18T05:25:52.073Z,19.27
2022-10-18T05:31:11.841Z,24.20
2022-10-18T05:33:39.838Z,20.95
2022-10-18T05:36:08.190Z,24.15
2022-10-18T05:38:42.446Z,24.73
2022-10-18T05:41:10.853Z,21.02
2022-10-18T05:43:40.824Z,21.55
2022-10-18T05:46:13.712Z,20.60
2022-10-18T05:49:10.381Z,21.08
2022-10-18T05:51:38.397Z,21.08
2022-10-18T05:54:06.368Z,20.85
2022-10-18T05:56:34.335Z,20.38
2022-10-18T05:59:05.219Z,20.05
2022-10-18T06:01:33.111Z,21.33
2022-10-18T06:04:19.336Z,23.85
2022-10-18T06:06:47.364Z,21.95
2022-10-18T06:09:15.126Z,21.08
2022-10-18T06:11:43.014Z,24.33
2022-10-18T06:14:20.194Z,22.80
2022-10-18T06:16:48.106Z,20.15
2022-10-18T06:19:15.862Z,24.48
2022-10-18T06:21:44.140Z,22.50
2022-10-18T06:24:18.720Z,22.77
2022-10-18T06:26:46.786Z,24.00
2022-10-18T06:29:26.712Z,23.77
2022-10-18T06:31:54.647Z,21.70
2022-10-18T06:34:22.494Z,22.80
2022-10-18T06:36:55.018Z,23.25
2022-10-18T06:39:27.084Z,21.88
2022-10-18T06:41:54.833Z,24.50
2022-10-18T06:44:22.697Z,26.90
2022-10-18T06:46:51.763Z,22.80
2022-10-18T06:49:20.323Z,21.63
2022-10-18T06:51:48.494Z,24.23
2022-10-18T06:54:18.514Z,22.23
2022-10-18T06:56:46.939Z,24.63
2022-10-18T06:59:15.196Z,23.20
2022-10-18T07:01:44.016Z,23.13
2022-10-18T07:04:12.135Z,24.00
2022-10-18T07:06:40.145Z,22.50
2022-10-18T07:09:07.884Z,24.55
2022-10-18T07:11:35.747Z,22.98
2022-10-18T07:14:06.412Z,25.17
2022-10-18T07:16:34.887Z,23.70
2022-10-18T07:19:05.719Z,24.38
2022-10-18T07:21:34.089Z,23.73
2022-10-18T07:24:01.853Z,22.92
2022-10-18T07:26:33.422Z,22.13
2022-10-18T07:29:07.757Z,22.23
2022-10-18T07:31:36.808Z,23.48
2022-10-18T07:34:06.071Z,24.10
2022-10-18T07:36:34.769Z,23.10
2022-10-18T07:39:02.705Z,23.52
2022-10-18T07:41:55.442Z,24.83
2022-10-18T07:44:23.344Z,24.02
2022-10-18T07:46:51.296Z,26.52
2022-10-18T07:49:20.839Z,24.00
2022-10-18T07:51:51.458Z,24.45
2022-10-18T07:54:22.599Z,26.00
2022-10-18T07:56:50.321Z,23.83
2022-10-18T07:59:18.183Z,25.13
2022-10-18T08:02:11.519Z,23.48
2022-10-18T08:04:39.428Z,27.77
2022-10-18T08:07:07.208Z,26.17
2022-10-18T08:09:35.243Z,25.42
2022-10-18T08:12:04.347Z,23.40
2022-10-18T08:14:32.607Z,27.63
2022-10-18T08:17:00.295Z,25.50
2022-10-18T08:20:11.264Z,25.95
2022-10-18T08:22:40.836Z,25.27
2022-10-18T08:25:33.597Z,25.25
2022-10-18T08:28:02.165Z,26.10
2022-10-18T08:30:55.535Z,24.50
2022-10-18T08:33:23.884Z,26.40
2022-10-18T08:35:59.464Z,26.63
2022-10-18T08:38:30.602Z,26.35
2022-10-18T08:44:27.484Z,25.83
2022-10-18T08:47:01.048Z,27.90
2022-10-18T08:49:38.266Z,27.20
2022-10-18T08:52:15.296Z,28.40
2022-10-18T08:55:36.772Z,29.10
2022-10-18T08:58:15.528Z,26.35
2022-10-18T09:01:06.295Z,25.95
2022-10-18T09:03:58.686Z,28.17
2022-10-18T09:06:49.062Z,28.15
2022-10-18T09:09:54.474Z,28.77
2022-10-18T09:12:42.951Z,30.92
2022-10-18T09:15:48.658Z,28.88
2022-10-18T09:18:34.405Z,34.88
2022-10-18T09:21:17.435Z,30.60
2022-10-18T09:23:50.171Z,30.20
2022-10-18T09:26:21.524Z,29.38
2022-10-18T09:28:58.991Z,31.52
2022-10-18T09:31:34.286Z,29.50
2022-10-18T09:34:23.813Z,29.20
2022-10-18T09:36:56.718Z,30.83
2022-10-18T09:39:35.621Z,33.70
2022-10-18T09:42:12.372Z,30.90
2022-10-18T09:44:55.381Z,32.00
2022-10-18T09:47:34.381Z,30.60
2022-10-18T09:50:15.591Z,32.63
2022-10-18T09:53:02.412Z,34.08
2022-10-18T09:55:35.802Z,33.83
2022-10-18T09:58:08.401Z,37.88
2022-10-18T10:00:48.691Z,34.25
2022-10-18T10:03:17.652Z,33.88
2022-10-18T10:05:45.870Z,33.65
2022-10-18T10:08:13.700Z,36.25
2022-10-18T10:10:47.789Z,34.10
2022-10-18T10:13:23.270Z,36.05
2022-10-18T10:16:01.608Z,35.42
2022-10-18T10:18:36.684Z,35.22
2022-10-18T10:21:07.219Z,33.70
2022-10-18T10:23:55.993Z,33.90
2022-10-18T10:26:34.927Z,34.30
2022-10-18T10:29:03.178Z,32.05
2022-10-18T10:31:32.039Z,42.70
2022-10-18T10:34:15.307Z,36.10
2022-10-18T10:37:41.706Z,37.95
2022-10-18T10:40:41.741Z,35.58
2022-10-18T10:43:36.646Z,35.80
2022-10-18T10:46:20.213Z,35.55
2022-10-18T10:49:21.048Z,41.75
2022-10-18T10:52:08.105Z,34.85
2022-10-18T10:54:50.368Z,36.17
2022-10-18T10:57:27.951Z,39.47
2022-10-18T10:59:59.973Z,36.08
2022-10-18T11:02:33.932Z,36.92
2022-10-18T11:05:43.120Z,34.47
2022-10-18T11:08:13.464Z,34.50
2022-10-18T11:17:26.218Z,36.58
2022-10-18T11:20:09.770Z,36.53
2022-10-18T11:22:46.944Z,39.10
2022-10-18T11:25:16.982Z,37.92
2022-10-18T11:28:26.249Z,45.20
2022-10-18T11:31:01.787Z,37.17
2022-10-18T11:34:14.298Z,48.83
2022-10-18T11:37:29.122Z,37.97
2022-10-18T11:40:10.954Z,41.80
2022-10-18T11:43:16.611Z,38.75
2022-10-18T11:46:11.941Z,46.10
2022-10-18T11:49:29.984Z,38.13
2022-10-18T11:52:27.244Z,40.10
2022-10-18T11:55:04.927Z,36.67
2022-10-18T11:57:53.866Z,38.00
2022-10-18T12:00:29.435Z,38.58
2022-10-18T12:03:15.309Z,38.67
2022-10-18T12:05:46.508Z,36.25
2022-10-18T12:08:26.302Z,37.85
2022-10-18T12:11:06.099Z,51.25
2022-10-18T12:14:06.245Z,37.28
2022-10-18T12:16:51.009Z,35.92
2022-10-18T12:19:33.211Z,40.78
2022-10-18T12:22:24.614Z,35.72
2022-10-18T12:24:52.704Z,40.15
2022-10-18T12:27:35.528Z,39.08
2022-10-18T12:30:30.063Z,36.53
2022-10-18T12:33:27.904Z,41.05
2022-10-18T12:36:24.353Z,38.97
2022-10-18T12:39:00.809Z,38.22
2022-10-18T12:41:31.346Z,36.85
2022-10-18T12:44:20.875Z,39.05
2022-10-18T12:46:51.533Z,36.60
2022-10-18T12:49:37.427Z,40.97
2022-10-18T12:52:23.718Z,40.35
2022-10-18T12:55:15.303Z,39.08
2022-10-18T12:57:51.836Z,37.70
2022-10-18T13:00:32.073Z,39.67
2022-10-18T13:03:18.231Z,40.27
2022-10-18T13:05:54.963Z,37.15
2022-10-18T13:08:51.293Z,38.58
2022-10-18T13:11:35.967Z,38.95
2022-10-18T13:14:12.758Z,40.30
2022-10-18T13:17:21.304Z,39.95
2022-10-18T13:20:25.136Z,40.22
2022-10-18T13:26:22.317Z,40.63
2022-10-18T13:29:35.100Z,40.47
2022-10-18T13:32:48.034Z,39.42
2022-10-18T13:35:47.280Z,40.83
2022-10-18T13:38:43.022Z,41.58
2022-10-18T13:41:14.417Z,40.95
2022-10-18T13:44:03.870Z,40.30
2022-10-18T13:46:34.716Z,41.17
2022-10-18T13:49:17.449Z,41.22
2022-10-18T13:51:45.649Z,41.58
2022-10-18T13:54:54.922Z,43.78
2022-10-18T13:57:41.846Z,45.95
2022-10-18T14:00:49.073Z,43.15
2022-10-18T14:06:35.325Z,42.25
2022-10-18T14:09:25.743Z,42.90
2022-10-18T14:12:28.557Z,44.65
2022-10-18T14:15:26.709Z,44.15
2022-10-18T14:18:14.315Z,39.78
2022-10-18T14:21:01.538Z,39.00
2022-10-18T14:23:41.694Z,39.53
2022-10-18T14:26:21.719Z,40.08
2022-10-18T14:29:27.422Z,40.85
2022-10-18T14:31:58.768Z,41.38
2022-10-18T14:34:33.020Z,43.25
2022-10-18T14:37:29.257Z,42.10
2022-10-18T14:39:57.398Z,42.38
2022-10-18T14:42:27.198Z,42.35
2022-10-18T14:44:56.608Z,44.35
2022-10-18T14:47:36.552Z,45.20
2022-10-18T14:50:04.806Z,43.45
2022-10-18T14:52:57.666Z,44.85
2022-10-18T14:55:32.703Z,46.45
2022-10-18T14:58:00.856Z,45.85
2022-10-18T15:00:38.024Z,41.03
2022-10-18T15:03:11.210Z,33.75
2022-10-18T15:05:56.597Z,28.75
2022-10-18T15:08:27.154Z,32.83
2022-10-18T15:10:56.003Z,28.50
2022-10-18T15:13:25.534Z,20.65
2022-10-18T15:15:54.608Z,22.30
2022-10-18T15:18:25.938Z,22.08
2022-10-18T15:21:23.015Z,15.75
2022-10-18T15:23:52.525Z,13.35
2022-10-18T15:26:48.116Z,12.50
2022-10-18T15:29:20.762Z,9.20
2022-10-18T15:31:50.459Z,11.75
2022-10-18T15:34:28.180Z,9.10
2022-10-18T15:36:57.363Z,9.63
2022-10-18T15:39:31.348Z,12.48
2022-10-18T15:42:01.924Z,14.38
2022-10-18T15:44:51.780Z,13.75
2022-10-18T15:47:25.198Z,15.65
2022-10-18T15:49:56.852Z,17.83
2022-10-18T15:52:50.436Z,20.50
2022-10-18T15:55:30.844Z,24.45
2022-10-18T15:58:26.536Z,26.50
2022-10-18T16:00:58.591Z,30.77
2022-10-18T16:03:27.185Z,32.10
2022-10-18T16:06:07.891Z,31.65
2022-10-18T16:08:42.649Z,34.92
2022-10-18T16:11:22.388Z,39.53
2022-10-18T16:13:54.011Z,34.17
2022-10-18T16:16:51.860Z,35.95
2022-10-18T16:19:21.503Z,37.42
2022-10-18T16:21:52.693Z,33.03
2022-10-18T16:24:22.063Z,35.03
2022-10-18T16:26:56.886Z,34.88
2022-10-18T16:29:26.073Z,34.70
2022-10-18T16:31:58.474Z,38.70
2022-10-18T16:34:27.327Z,35.15
2022-10-18T16:36:56.704Z,36.53
2022-10-18T16:39:25.871Z,37.10
2022-10-18T16:41:53.997Z,36.38
2022-10-18T16:44:22.117Z,41.08
2022-10-18T16:46:54.113Z,41.53
2022-10-18T16:49:26.478Z,43.28
2022-10-18T16:51:55.460Z,43.92
2022-10-18T16:54:24.094Z,44.28
2022-10-18T16:56:52.203Z,46.38
2022-10-18T16:59:31.738Z,48.13
2022-10-18T17:02:04.876Z,50.85
2022-10-18T17:04:37.096Z,49.25
2022-10-18T17:07:06.342Z,53.05
2022-10-18T17:09:45.111Z,54.55
2022-10-18T17:12:16.687Z,59.22
2022-10-18T17:14:47.165Z,57.90
2022-10-18T17:17:16.161Z,64.72
2022-10-18T17:19:51.221Z,63.72
2022-10-18T17:23:21.716Z,69.20
2022-10-18T17:26:04.894Z,64.85
2022-10-18T17:28:41.218Z,53.33
2022-10-18T17:31:40.900Z,41.60
2022-10-18T17:34:22.574Z,32.50
2022-10-18T17:37:10.971Z,25.75
2022-10-18T17:39:39.706Z,19.23
2022-10-18T17:42:15.975Z,20.55
2022-10-18T17:44:46.094Z,21.73
2022-10-18T17:47:15.811Z,19.13
2022-10-18T17:49:45.200Z,17.20
2022-10-18T17:52:18.293Z,19.50
2022-10-18T17:54:46.243Z,17.80
2022-10-18T17:57:14.172Z,16.85
2022-10-18T17:59:48.277Z,21.23
2022-10-18T18:02:16.214Z,19.40
2022-10-18T18:04:44.296Z,22.60
2022-10-18T18:07:15.850Z,21.67
2022-10-18T18:09:44.814Z,26.60
2022-10-18T18:12:12.841Z,28.77
2022-10-18T18:14:51.889Z,41.38
2022-10-18T18:17:28.727Z,38.83
2022-10-18T18:20:02.446Z,28.45
2022-10-18T18:22:30.616Z,31.80
2022-10-18T18:24:58.504Z,32.53
2022-10-18T18:27:26.740Z,39.67
2022-10-18T18:29:55.325Z,42.50
2022-10-18T18:32:23.171Z,48.08
2022-10-18T18:34:51.033Z,48.25
2022-10-18T18:37:18.721Z,40.00
2022-10-18T18:39:46.819Z,28.05
2022-10-18T18:42:17.798Z,35.65
2022-10-18T18:44:46.356Z,36.65
2022-10-18T18:47:14.311Z,36.17
2022-10-18T18:49:42.587Z,33.05
2022-10-18T18:52:10.423Z,45.95
2022-10-18T18:54:38.413Z,36.33
2022-10-18T18:57:06.635Z,31.15
2022-10-18T18:59:34.503Z,34.20
2022-10-18T19:02:10.085Z,32.58
2022-10-18T19:04:39.581Z,41.65
2022-10-18T19:07:12.518Z,44.30
2022-10-18T19:09:54.237Z,40.95
2022-10-18T19:12:27.670Z,30.48
2022-10-18T19:14:55.651Z,22.73
2022-10-18T19:17:27.144Z,23.67
2022-10-18T19:19:55.244Z,36.92
2022-10-18T19:22:23.029Z,27.38
2022-10-18T19:24:50.866Z,40.00
2022-10-18T19:27:18.616Z,19.85
2022-10-18T19:29:49.009Z,19.40
2022-10-18T19:32:18.846Z,20.07
2022-10-18T19:34:46.848Z,19.98
2022-10-18T19:37:15.899Z,21.60
2022-10-18T19:39:43.812Z,23.08
2022-10-18T19:42:19.232Z,20.88
2022-10-18T19:44:53.291Z,21.10
2022-10-18T19:47:21.247Z,20.17
2022-10-18T19:49:49.815Z,20.58
2022-10-18T19:52:17.796Z,23.67
2022-10-18T19:54:45.840Z,23.75
2022-10-18T19:57:13.883Z,19.45
2022-10-18T19:59:42.237Z,22.90
2022-10-18T20:02:14.653Z,23.58
2022-10-18T20:04:42.643Z,22.85
2022-10-18T20:07:10.407Z,25.63
2022-10-18T20:09:39.851Z,23.55
2022-10-18T20:12:07.922Z,22.20
2022-10-18T20:14:38.737Z,25.42
2022-10-18T20:17:06.757Z,28.20
2022-10-18T20:19:34.562Z,23.55
2022-10-18T20:22:02.566Z,25.00
2022-10-18T20:24:30.564Z,23.77
2022-10-18T20:27:05.263Z,25.25
2022-10-18T20:29:37.695Z,21.70
2022-10-18T20:32:05.926Z,23.52
2022-10-18T20:34:33.803Z,22.95
2022-10-18T20:37:02.914Z,23.02
2022-10-18T20:39:30.923Z,21.40
2022-10-18T20:41:58.716Z,21.00
2022-10-18T20:44:27.349Z,23.02
2022-10-18T20:46:55.114Z,20.70
2022-10-18T20:49:23.929Z,20.50
2022-10-18T20:51:54.953Z,21.08
2022-10-18T20:54:22.971Z,20.20
2022-10-18T20:56:50.671Z,21.63
2022-10-18T20:59:18.705Z,22.58
2022-10-18T21:01:47.664Z,20.10
2022-10-18T21:04:15.500Z,21.30
2022-10-18T21:06:49.201Z,20.48
2022-10-18T21:09:19.068Z,21.50
2022-10-18T21:11:50.212Z,20.58
2022-10-18T21:17:11.721Z,24.23
2022-10-18T21:19:39.640Z,24.83
2022-10-18T21:22:07.544Z,26.83
2022-10-18T21:24:35.453Z,28.10
2022-10-18T21:27:03.381Z,28.30
2022-10-18T21:29:32.770Z,28.98
2022-10-18T21:32:01.102Z,30.00
2022-10-18T21:34:29.773Z,29.05
2022-10-18T21:37:22.433Z,28.52
2022-10-18T21:39:50.701Z,31.40
2022-10-18T21:42:18.605Z,27.83
2022-10-18T21:44:46.547Z,28.35
2022-10-18T21:47:15.744Z,31.42
2022-10-18T21:49:43.566Z,32.47
2022-10-18T21:52:11.433Z,31.85
2022-10-18T21:54:39.336Z,31.50
2022-10-18T21:57:07.096Z,31.88
2022-10-18T21:59:35.829Z,36.08
2022-10-18T22:02:03.722Z,33.50
2022-10-18T22:04:35.907Z,33.90
2022-10-18T22:07:05.949Z,33.25
2022-10-18T22:09:58.150Z,33.47
2022-10-18T22:12:26.152Z,35.92
2022-10-18T22:14:53.945Z,35.78
2022-10-18T22:17:21.804Z,35.25
2022-10-18T22:19:49.613Z,34.72
2022-10-18T22:22:17.494Z,35.20
2022-10-18T22:24:45.349Z,34.38
2022-10-18T22:27:13.237Z,35.70
2022-10-18T22:29:41.380Z,36.15
2022-10-18T22:32:09.299Z,34.63
2022-10-18T22:34:37.289Z,35.85
2022-10-18T22:37:05.133Z,35.72
2022-10-18T22:39:32.915Z,35.75
2022-10-18T22:42:00.937Z,33.75
2022-10-18T22:44:29.775Z,33.90
2022-10-18T22:46:57.574Z,36.22
2022-10-18T22:49:25.321Z,37.35
2022-10-18T22:51:53.173Z,37.00
2022-10-18T22:54:20.920Z,37.05
2022-10-18T22:56:48.827Z,36.10
2022-10-18T22:59:16.588Z,38.13
2022-10-18T23:01:44.579Z,39.15
2022-10-18T23:04:12.263Z,38.08
2022-10-18T23:06:40.683Z,40.97
2022-10-18T23:09:11.078Z,40.58
2022-10-18T23:11:42.012Z,42.95
2022-10-18T23:14:10.954Z,40.60
2022-10-18T23:16:38.726Z,38.75
2022-10-18T23:19:06.758Z,40.40
2022-10-18T23:21:34.718Z,37.97
2022-10-18T23:24:02.749Z,39.13
2022-10-18T23:26:30.537Z,40.85
2022-10-18T23:28:59.952Z,37.90
2022-10-18T23:31:30.700Z,35.55
2022-10-18T23:34:01.131Z,37.30
2022-10-18T23:36:30.778Z,37.08
2022-10-18T23:38:59.060Z,34.08
2022-10-18T23:41:30.873Z,37.00
2022-10-18T23:43:58.687Z,35.70
2022-10-18T23:46:26.517Z,34.45
2022-10-18T23:48:54.409Z,33.85
2022-10-18T23:51:22.181Z,32.15
2022-10-18T23:53:50.672Z,31.20
2022-10-18T23:56:18.470Z,34.10
2022-10-18T23:58:46.782Z,32.13
